createdAt,value
2018-12-09T00:01:58.252Z,2.53
2018-12-09T00:04:24.789Z,3.70
2018-12-09T00:06:51.398Z,2.77
2018-12-09T00:09:18.770Z,4.57
2018-12-09T00:11:45.618Z,4.60
2018-12-09T00:14:12.055Z,3.83
2018-12-09T00:16:38.531Z,2.30
2018-12-09T00:19:05.068Z,4.00
2018-12-09T00:21:31.736Z,4.00
2018-12-09T00:23:58.362Z,5.73
2018-12-09T00:26:24.866Z,4.00
2018-12-09T00:28:51.322Z,3.83
2018-12-09T00:31:17.837Z,5.80
2018-12-09T00:33:45.183Z,3.40
2018-12-09T00:36:11.632Z,6.00
2018-12-09T00:38:38.312Z,2.73
2018-12-09T00:41:04.757Z,3.63
2018-12-09T00:43:31.287Z,3.23
2018-12-09T00:45:57.769Z,3.20
2018-12-09T00:48:24.218Z,4.23
2018-12-09T00:50:50.689Z,2.43
2018-12-09T00:53:17.180Z,3.33
2018-12-09T00:55:43.846Z,2.87
2018-12-09T00:58:11.150Z,2.30
2018-12-09T01:00:37.651Z,3.10
2018-12-09T01:03:04.063Z,4.40
2018-12-09T01:05:30.641Z,1.53
2018-12-09T01:07:57.108Z,2.43
2018-12-09T01:10:23.655Z,2.63
2018-12-09T01:12:50.121Z,2.70
2018-12-09T01:15:16.628Z,1.83
2018-12-09T01:17:43.126Z,1.63
2018-12-09T01:20:09.812Z,1.40
2018-12-09T01:22:36.270Z,2.27
2018-12-09T01:25:02.987Z,2.30
2018-12-09T01:27:30.413Z,2.50
2018-12-09T01:29:56.863Z,1.47
2018-12-09T01:32:23.338Z,4.33
2018-12-09T01:34:49.877Z,1.47
2018-12-09T01:37:16.223Z,2.80
2018-12-09T01:39:42.671Z,4.47
2018-12-09T01:42:09.117Z,3.53
2018-12-09T01:44:36.022Z,3.03
2018-12-09T01:47:02.730Z,1.90
2018-12-09T01:49:30.239Z,2.57
2018-12-09T01:51:56.605Z,2.37
2018-12-09T01:54:23.116Z,2.53
2018-12-09T01:56:49.624Z,3.67
2018-12-09T01:59:16.099Z,2.00
2018-12-09T02:01:42.861Z,3.03
2018-12-09T02:04:09.313Z,2.30
2018-12-09T02:06:35.840Z,1.37
2018-12-09T02:09:05.093Z,1.40
2018-12-09T02:11:31.789Z,4.73
2018-12-09T02:13:58.223Z,1.87
2018-12-09T02:16:24.714Z,3.20
2018-12-09T02:19:06.855Z,1.17
2018-12-09T02:21:33.362Z,2.87
2018-12-09T02:23:59.763Z,2.87
2018-12-09T02:26:26.185Z,2.47
2018-12-09T02:28:52.720Z,1.83
2018-12-09T02:31:19.155Z,3.20
2018-12-09T02:33:45.631Z,2.10
2018-12-09T02:36:12.152Z,1.07
2018-12-09T02:38:38.694Z,1.77
2018-12-09T02:41:05.145Z,2.63
2018-12-09T02:43:31.854Z,2.03
2018-12-09T02:45:58.305Z,1.70
2018-12-09T02:48:25.700Z,3.03
2018-12-09T02:50:52.146Z,3.47
2018-12-09T02:53:18.614Z,2.03
2018-12-09T02:55:45.108Z,2.50
2018-12-09T02:58:11.575Z,3.97
2018-12-09T03:00:38.074Z,1.30
2018-12-09T03:03:04.666Z,4.33
2018-12-09T03:05:31.547Z,3.13
2018-12-09T03:07:58.273Z,2.17
2018-12-09T03:10:24.871Z,3.57
2018-12-09T03:12:51.536Z,3.90
2018-12-09T03:15:18.143Z,2.60
2018-12-09T03:17:45.234Z,3.83
2018-12-09T03:20:11.950Z,2.57
2018-12-09T03:22:38.501Z,2.67
2018-12-09T03:25:05.180Z,2.30
2018-12-09T03:27:31.741Z,2.03
2018-12-09T03:29:58.286Z,2.10
2018-12-09T03:32:24.784Z,4.17
2018-12-09T03:34:51.641Z,2.90
2018-12-09T03:37:18.135Z,3.17
2018-12-09T03:39:45.129Z,3.80
2018-12-09T03:42:11.603Z,2.40
2018-12-09T03:44:38.064Z,3.23
2018-12-09T03:47:04.570Z,4.97
2018-12-09T03:49:31.337Z,2.30
2018-12-09T03:51:57.770Z,4.20
2018-12-09T03:54:24.208Z,3.13
2018-12-09T03:56:51.124Z,2.37
2018-12-09T03:59:17.611Z,4.23
2018-12-09T04:01:44.055Z,3.67
2018-12-09T04:04:10.516Z,4.17
2018-12-09T04:06:37.000Z,1.67
2018-12-09T04:09:04.323Z,5.17
2018-12-09T04:11:30.812Z,5.20
2018-12-09T04:14:00.289Z,7.53
2018-12-09T04:16:26.949Z,5.73
2018-12-09T04:18:53.408Z,4.43
2018-12-09T04:21:19.869Z,4.57
2018-12-09T04:23:46.479Z,6.30
2018-12-09T04:26:12.972Z,5.60
2018-12-09T04:28:39.389Z,5.00
2018-12-09T04:31:05.800Z,6.33
2018-12-09T04:33:32.519Z,4.77
2018-12-09T04:35:59.400Z,10.77
2018-12-09T04:38:26.677Z,8.20
2018-12-09T04:40:53.077Z,7.40
2018-12-09T04:43:19.574Z,9.37
2018-12-09T04:45:46.005Z,12.07
2018-12-09T04:48:12.536Z,4.47
2018-12-09T04:50:39.014Z,6.70
2018-12-09T04:53:05.426Z,10.17
2018-12-09T04:55:32.130Z,7.30
2018-12-09T04:57:58.578Z,14.80
2018-12-09T05:00:37.041Z,8.30
2018-12-09T05:03:03.545Z,5.23
2018-12-09T05:05:29.967Z,9.10
2018-12-09T05:07:56.442Z,9.90
2018-12-09T05:10:22.889Z,5.57
2018-12-09T05:12:49.398Z,8.00
2018-12-09T05:15:15.798Z,6.27
2018-12-09T05:17:42.291Z,5.83
2018-12-09T05:20:08.738Z,6.83
2018-12-09T05:22:35.201Z,7.77
2018-12-09T05:25:01.656Z,6.33
2018-12-09T05:27:28.540Z,6.23
2018-12-09T05:29:55.503Z,7.87
2018-12-09T05:32:21.998Z,8.60
2018-12-09T05:34:48.573Z,9.27
2018-12-09T05:37:15.104Z,4.90
2018-12-09T05:39:41.736Z,8.30
2018-12-09T05:42:08.179Z,9.77
2018-12-09T05:44:34.596Z,7.43
2018-12-09T05:47:01.314Z,8.77
2018-12-09T05:49:28.338Z,5.80
2018-12-09T05:51:54.830Z,8.40
2018-12-09T05:54:21.809Z,6.30
2018-12-09T05:56:48.487Z,7.63
2018-12-09T05:59:14.964Z,9.43
2018-12-09T06:01:41.515Z,6.03
2018-12-09T06:04:07.926Z,9.23
2018-12-09T06:06:34.337Z,8.10
2018-12-09T06:09:01.048Z,5.30
2018-12-09T06:11:27.450Z,6.67
2018-12-09T06:13:53.838Z,9.40
2018-12-09T06:16:20.240Z,10.30
2018-12-09T06:18:46.647Z,9.83
2018-12-09T06:21:13.088Z,10.73
2018-12-09T06:23:39.514Z,5.87
2018-12-09T06:26:06.859Z,4.23
2018-12-09T06:28:33.258Z,7.70
2018-12-09T06:30:59.650Z,9.63
2018-12-09T06:33:26.196Z,6.27
2018-12-09T06:35:52.843Z,5.00
2018-12-09T06:38:19.305Z,4.40
2018-12-09T06:40:45.735Z,5.30
2018-12-09T06:43:12.339Z,6.70
2018-12-09T06:45:38.744Z,8.10
2018-12-09T06:48:05.186Z,5.40
2018-12-09T06:50:31.746Z,7.73
2018-12-09T06:52:58.156Z,6.10
2018-12-09T06:55:24.525Z,10.67
2018-12-09T06:57:50.937Z,6.60
2018-12-09T07:00:17.400Z,3.10
2018-12-09T07:02:43.847Z,8.70
2018-12-09T07:05:10.276Z,9.70
2018-12-09T07:07:36.954Z,1.67
2018-12-09T07:10:05.499Z,8.00
2018-12-09T07:12:32.022Z,4.17
2018-12-09T07:14:58.430Z,3.80
2018-12-09T07:17:25.627Z,2.60
2018-12-09T07:19:52.048Z,5.40
2018-12-09T07:22:18.578Z,5.13
2018-12-09T07:24:46.353Z,2.80
2018-12-09T07:27:13.189Z,5.93
2018-12-09T07:29:41.853Z,6.80
2018-12-09T07:32:08.283Z,7.10
2018-12-09T07:34:35.129Z,7.17
2018-12-09T07:37:01.551Z,3.70
2018-12-09T07:39:27.911Z,9.53
2018-12-09T07:41:54.546Z,2.47
2018-12-09T07:44:21.006Z,3.50
2018-12-09T07:46:47.425Z,3.53
2018-12-09T07:49:13.798Z,5.07
2018-12-09T07:51:40.846Z,3.40
2018-12-09T07:54:07.262Z,2.67
2018-12-09T07:56:33.784Z,1.70
2018-12-09T07:59:00.334Z,3.03
2018-12-09T08:01:26.917Z,3.57
2018-12-09T08:06:30.886Z,4.57
2018-12-09T08:09:01.146Z,5.10
2018-12-09T08:11:27.632Z,3.53
2018-12-09T08:13:54.350Z,3.97
2018-12-09T08:16:21.106Z,5.23
2018-12-09T08:18:47.536Z,2.27
2018-12-09T08:21:14.506Z,1.93
2018-12-09T08:23:42.072Z,2.67
2018-12-09T08:26:08.458Z,7.07
2018-12-09T08:28:37.039Z,1.50
2018-12-09T08:31:03.422Z,5.73
2018-12-09T08:33:30.394Z,2.50
2018-12-09T08:35:56.781Z,4.97
2018-12-09T08:38:23.149Z,1.30
2018-12-09T08:40:50.299Z,4.63
2018-12-09T08:43:16.825Z,2.03
2018-12-09T08:45:43.466Z,3.30
2018-12-09T08:48:09.958Z,2.73
2018-12-09T08:50:36.371Z,0.80
2018-12-09T08:53:02.849Z,2.53
2018-12-09T08:55:29.321Z,2.13
2018-12-09T08:57:55.848Z,2.23
2018-12-09T09:00:22.505Z,2.40
2018-12-09T09:02:48.939Z,2.43
2018-12-09T09:05:15.684Z,1.47
2018-12-09T09:07:42.228Z,7.50
2018-12-09T09:10:08.708Z,1.90
2018-12-09T09:12:36.171Z,1.73
2018-12-09T09:15:02.746Z,3.53
2018-12-09T09:17:29.346Z,2.00
2018-12-09T09:19:56.969Z,2.63
2018-12-09T09:22:23.504Z,2.03
2018-12-09T09:24:49.972Z,0.97
2018-12-09T09:27:16.423Z,2.13
2018-12-09T09:29:43.010Z,1.33
2018-12-09T09:32:09.469Z,1.33
2018-12-09T09:34:37.201Z,1.17
2018-12-09T09:37:04.956Z,3.37
2018-12-09T09:39:31.818Z,0.97
2018-12-09T09:41:58.325Z,0.97
2018-12-09T09:44:24.928Z,0.80
2018-12-09T09:46:51.558Z,2.30
2018-12-09T09:49:18.787Z,3.77
2018-12-09T09:51:46.475Z,1.53
2018-12-09T09:54:13.094Z,1.10
2018-12-09T09:56:39.684Z,3.50
2018-12-09T09:59:06.185Z,10.37
2018-12-09T10:01:32.730Z,0.87
2018-12-09T10:03:59.273Z,2.57
2018-12-09T10:06:25.922Z,1.10
2018-12-09T10:08:52.539Z,0.77
2018-12-09T10:11:19.230Z,1.70
2018-12-09T10:13:46.633Z,1.13
2018-12-09T10:16:13.009Z,2.07
2018-12-09T10:18:39.654Z,0.80
2018-12-09T10:21:06.285Z,1.07
2018-12-09T10:23:32.750Z,0.97
2018-12-09T10:25:59.190Z,1.50
2018-12-09T10:28:25.959Z,1.60
2018-12-09T10:30:52.416Z,0.87
2018-12-09T10:33:19.899Z,1.97
2018-12-09T10:35:46.556Z,2.13
2018-12-09T10:38:13.035Z,1.73
2018-12-09T10:40:39.530Z,1.00
2018-12-09T10:43:06.018Z,1.17
2018-12-09T10:45:32.507Z,1.10
2018-12-09T10:47:58.851Z,1.30
2018-12-09T10:50:25.363Z,1.40
2018-12-09T10:52:51.766Z,1.13
2018-12-09T10:55:18.171Z,4.17
2018-12-09T10:57:44.782Z,1.90
2018-12-09T11:00:13.297Z,0.70
2018-12-09T11:02:39.930Z,2.53
2018-12-09T11:05:08.689Z,0.80
2018-12-09T11:07:36.026Z,1.23
2018-12-09T11:10:02.697Z,1.07
2018-12-09T11:15:27.089Z,1.40
2018-12-09T11:17:53.631Z,1.20
2018-12-09T11:20:20.081Z,1.33
2018-12-09T11:22:46.780Z,1.47
2018-12-09T11:25:13.225Z,1.67
2018-12-09T11:27:39.748Z,1.37
2018-12-09T11:30:06.679Z,1.40
2018-12-09T11:32:33.228Z,1.40
2018-12-09T11:34:59.804Z,1.13
2018-12-09T11:37:26.408Z,2.77
2018-12-09T11:39:53.178Z,1.60
2018-12-09T11:42:19.697Z,1.17
2018-12-09T11:44:51.607Z,1.50
2018-12-09T11:47:19.076Z,1.43
2018-12-09T11:49:45.721Z,1.07
2018-12-09T11:52:12.134Z,1.00
2018-12-09T11:54:42.477Z,2.20
2018-12-09T11:57:09.082Z,3.37
2018-12-09T11:59:35.535Z,2.73
2018-12-09T12:02:02.126Z,2.63
2018-12-09T12:04:28.525Z,4.13
2018-12-09T12:06:55.113Z,4.67
2018-12-09T12:09:21.678Z,4.17
2018-12-09T12:11:48.234Z,3.17
2018-12-09T12:14:14.653Z,2.70
2018-12-09T12:16:41.169Z,3.20
2018-12-09T12:19:08.301Z,3.90
2018-12-09T12:21:35.306Z,5.83
2018-12-09T12:24:01.877Z,4.80
2018-12-09T12:26:29.179Z,4.13
2018-12-09T12:28:56.449Z,5.07
2018-12-09T12:31:23.764Z,3.07
2018-12-09T12:33:53.304Z,2.33
2018-12-09T12:36:19.937Z,5.30
2018-12-09T12:38:46.408Z,4.80
2018-12-09T12:41:12.793Z,1.70
2018-12-09T12:43:39.593Z,2.37
2018-12-09T12:46:08.171Z,3.20
2018-12-09T12:48:35.645Z,3.90
2018-12-09T12:51:02.137Z,4.03
2018-12-09T12:53:37.552Z,4.67
2018-12-09T12:56:21.746Z,2.50
2018-12-09T12:58:48.582Z,2.43
2018-12-09T13:01:19.414Z,2.03
2018-12-09T13:03:48.976Z,2.43
2018-12-09T13:06:17.991Z,2.97
2018-12-09T13:08:46.383Z,1.70
2018-12-09T13:11:13.229Z,2.43
2018-12-09T13:16:33.709Z,1.23
2018-12-09T13:19:00.392Z,1.57
2018-12-09T13:21:26.891Z,1.30
2018-12-09T13:23:54.092Z,1.40
2018-12-09T13:26:20.988Z,3.23
2018-12-09T13:28:49.652Z,2.90
2018-12-09T13:34:19.846Z,1.40
2018-12-09T13:36:48.030Z,2.17
2018-12-09T13:39:14.472Z,1.67
2018-12-09T13:41:40.906Z,1.40
2018-12-09T13:44:07.478Z,1.10
2018-12-09T13:46:34.066Z,1.27
2018-12-09T13:49:00.512Z,2.40
2018-12-09T13:51:28.269Z,1.40
2018-12-09T13:53:56.062Z,1.53
2018-12-09T13:56:22.712Z,2.43
2018-12-09T13:58:49.242Z,1.90
2018-12-09T14:01:16.653Z,1.50
2018-12-09T14:03:43.147Z,1.67
2018-12-09T14:06:09.698Z,1.30
2018-12-09T14:08:36.924Z,3.20
2018-12-09T14:11:03.346Z,2.03
2018-12-09T14:13:29.890Z,1.80
2018-12-09T14:15:58.513Z,1.63
2018-12-09T14:18:25.847Z,3.67
2018-12-09T14:20:52.339Z,1.73
2018-12-09T14:23:18.801Z,1.63
2018-12-09T14:25:49.605Z,2.20
2018-12-09T14:28:17.129Z,1.50
2018-12-09T14:30:43.797Z,2.57
2018-12-09T14:33:11.513Z,1.60
2018-12-09T14:35:37.941Z,1.60
2018-12-09T14:38:04.374Z,2.87
2018-12-09T14:40:30.950Z,2.03
2018-12-09T14:42:57.356Z,2.43
2018-12-09T14:45:23.845Z,6.20
2018-12-09T14:47:50.313Z,2.77
2018-12-09T14:50:16.812Z,2.10
2018-12-09T14:52:43.616Z,2.90
2018-12-09T14:55:10.539Z,4.40
2018-12-09T14:57:37.167Z,1.80
2018-12-09T15:00:05.588Z,4.80
2018-12-09T15:02:32.813Z,3.03
2018-12-09T15:05:00.272Z,2.73
2018-12-09T15:07:27.369Z,2.60
2018-12-09T15:09:54.442Z,5.97
2018-12-09T15:12:21.300Z,4.30
2018-12-09T15:14:49.207Z,2.10
2018-12-09T15:17:15.858Z,2.60
2018-12-09T15:19:42.962Z,4.37
2018-12-09T15:22:09.414Z,10.80
2018-12-09T15:24:41.397Z,3.30
2018-12-09T15:27:05.349Z,2.33
2018-12-09T15:29:31.920Z,3.70
2018-12-09T15:31:58.748Z,2.57
2018-12-09T15:34:25.674Z,3.43
2018-12-09T15:36:53.123Z,3.53
2018-12-09T15:39:19.770Z,2.73
2018-12-09T15:41:46.253Z,4.07
2018-12-09T15:44:13.965Z,3.30
2018-12-09T15:46:40.398Z,2.17
2018-12-09T15:49:07.270Z,2.83
2018-12-09T15:51:33.929Z,2.97
2018-12-09T15:54:00.502Z,2.57
2018-12-09T15:56:26.957Z,4.70
2018-12-09T15:58:53.460Z,2.90
2018-12-09T16:01:19.942Z,3.03
2018-12-09T16:03:46.305Z,2.93
2018-12-09T16:06:12.898Z,3.13
2018-12-09T16:08:39.355Z,2.60
2018-12-09T16:11:07.024Z,2.93
2018-12-09T16:13:35.760Z,2.63
2018-12-09T16:16:03.417Z,2.93
2018-12-09T16:18:31.537Z,4.03
2018-12-09T16:20:58.124Z,5.23
2018-12-09T16:23:24.631Z,10.03
2018-12-09T16:25:51.227Z,3.83
2018-12-09T16:28:18.010Z,2.30
2018-12-09T16:30:44.624Z,2.30
2018-12-09T16:33:28.012Z,4.07
2018-12-09T16:35:54.700Z,4.70
2018-12-09T16:38:21.329Z,2.90
2018-12-09T16:40:47.857Z,2.53
2018-12-09T16:43:14.660Z,2.43
2018-12-09T16:45:41.051Z,3.63
2018-12-09T16:48:08.354Z,5.33
2018-12-09T16:50:35.048Z,3.27
2018-12-09T16:53:01.508Z,2.70
2018-12-09T16:55:27.982Z,2.57
2018-12-09T16:57:54.688Z,1.87
2018-12-09T17:00:22.362Z,4.27
2018-12-09T17:02:48.883Z,5.13
2018-12-09T17:11:09.342Z,2.00
2018-12-09T17:13:35.937Z,2.83
2018-12-09T17:16:02.487Z,2.10
2018-12-09T17:18:29.087Z,3.53
2018-12-09T17:20:55.687Z,2.30
2018-12-09T17:23:22.280Z,3.77
2018-12-09T17:25:48.953Z,3.07
2018-12-09T17:28:15.452Z,4.10
2018-12-09T17:30:43.120Z,5.60
2018-12-09T17:33:09.633Z,2.50
2018-12-09T17:35:36.586Z,3.93
2018-12-09T17:38:04.275Z,4.20
2018-12-09T17:40:30.861Z,3.17
2018-12-09T17:42:57.537Z,4.77
2018-12-09T17:45:24.153Z,3.30
2018-12-09T17:47:50.561Z,2.53
2018-12-09T17:50:17.233Z,3.00
2018-12-09T17:52:43.669Z,3.03
2018-12-09T17:55:10.178Z,3.17
2018-12-09T17:57:37.033Z,2.47
2018-12-09T18:00:05.030Z,3.90
2018-12-09T18:02:32.713Z,4.13
2018-12-09T18:05:18.114Z,2.93
2018-12-09T18:07:44.813Z,2.17
2018-12-09T18:10:13.600Z,2.60
2018-12-09T18:12:47.723Z,4.90
2018-12-09T18:15:11.512Z,4.13
2018-12-09T18:17:40.206Z,3.37
2018-12-09T18:20:07.646Z,3.57
2018-12-09T18:22:34.059Z,6.07
2018-12-09T18:25:01.438Z,2.20
2018-12-09T18:27:29.298Z,3.07
2018-12-09T18:29:56.013Z,3.93
2018-12-09T18:32:22.524Z,4.03
2018-12-09T18:34:54.981Z,4.60
2018-12-09T18:37:21.550Z,3.77
2018-12-09T18:39:51.197Z,4.07
2018-12-09T18:42:19.343Z,4.23
2018-12-09T18:44:49.246Z,4.13
2018-12-09T18:47:19.925Z,3.57
2018-12-09T18:49:48.904Z,2.83
2018-12-09T18:52:15.654Z,3.57
2018-12-09T18:54:42.328Z,3.00
2018-12-09T18:57:10.382Z,2.70
2018-12-09T18:59:39.201Z,2.93
2018-12-09T19:02:10.054Z,3.07
2018-12-09T19:04:39.921Z,2.70
2018-12-09T19:07:06.643Z,5.93
2018-12-09T19:09:36.845Z,1.83
2018-12-09T19:12:03.874Z,1.97
2018-12-09T19:14:30.480Z,1.80
2018-12-09T19:16:57.052Z,1.63
2018-12-09T19:19:24.156Z,2.27
2018-12-09T19:21:50.916Z,1.70
2018-12-09T19:24:17.355Z,2.50
2018-12-09T19:26:43.850Z,3.57
2018-12-09T19:29:14.771Z,3.53
2018-12-09T19:31:41.642Z,3.67
2018-12-09T19:34:08.583Z,3.13
2018-12-09T19:36:34.987Z,1.67
2018-12-09T19:39:01.845Z,2.17
2018-12-09T19:41:30.559Z,4.17
2018-12-09T19:44:00.478Z,2.90
2018-12-09T19:46:30.723Z,2.40
2018-12-09T19:48:57.200Z,2.20
2018-12-09T19:51:23.620Z,1.87
2018-12-09T19:53:50.084Z,1.57
2018-12-09T19:56:20.629Z,1.47
2018-12-09T19:58:47.063Z,1.80
2018-12-09T20:01:14.496Z,2.07
2018-12-09T20:03:40.885Z,1.70
2018-12-09T20:06:07.429Z,1.70
2018-12-09T20:08:33.966Z,1.73
2018-12-09T20:11:00.375Z,1.60
2018-12-09T20:13:26.727Z,2.20
2018-12-09T20:15:53.171Z,4.63
2018-12-09T20:18:19.683Z,3.43
2018-12-09T20:20:46.078Z,5.00
2018-12-09T20:23:12.586Z,6.30
2018-12-09T20:25:39.074Z,2.17
2018-12-09T20:28:05.834Z,2.87
2018-12-09T20:30:32.317Z,3.47
2018-12-09T20:32:58.797Z,3.30
2018-12-09T20:35:25.205Z,2.57
2018-12-09T20:37:51.590Z,1.87
2018-12-09T20:40:17.961Z,2.97
2018-12-09T20:42:48.150Z,4.03
2018-12-09T20:45:13.100Z,3.00
2018-12-09T20:47:39.447Z,2.30
2018-12-09T20:50:06.158Z,2.57
2018-12-09T20:52:32.658Z,2.70
2018-12-09T20:54:58.997Z,2.37
2018-12-09T20:57:25.361Z,2.83
2018-12-09T20:59:51.867Z,2.83
2018-12-09T21:02:18.422Z,2.03
2018-12-09T21:04:44.965Z,1.83
2018-12-09T21:07:11.565Z,3.30
2018-12-09T21:09:38.049Z,2.50
2018-12-09T21:12:04.455Z,1.83
2018-12-09T21:14:30.882Z,2.10
2018-12-09T21:16:57.336Z,1.73
2018-12-09T21:19:26.801Z,2.10
2018-12-09T21:21:54.724Z,2.03
2018-12-09T21:24:25.706Z,2.30
2018-12-09T21:26:51.254Z,2.47
2018-12-09T21:29:18.784Z,1.10
2018-12-09T21:31:45.272Z,1.33
2018-12-09T21:34:11.792Z,1.20
2018-12-09T21:36:38.334Z,1.53
2018-12-09T21:39:05.882Z,2.27
2018-12-09T21:41:32.613Z,1.87
2018-12-09T21:43:59.039Z,1.50
2018-12-09T21:46:26.997Z,1.53
2018-12-09T21:48:53.382Z,1.47
2018-12-09T21:51:20.043Z,1.37
2018-12-09T21:53:47.267Z,1.40
2018-12-09T21:56:14.016Z,2.00
2018-12-09T21:58:40.398Z,1.20
2018-12-09T22:01:06.781Z,1.93
2018-12-09T22:03:33.322Z,1.03
2018-12-09T22:05:59.739Z,1.73
2018-12-09T22:08:26.574Z,1.17
2018-12-09T22:10:52.939Z,1.33
2018-12-09T22:13:19.664Z,1.00
2018-12-09T22:15:46.649Z,1.27
2018-12-09T22:18:13.169Z,1.43
2018-12-09T22:20:39.557Z,0.93
2018-12-09T22:23:06.720Z,1.83
2018-12-09T22:25:33.291Z,1.40
2018-12-09T22:28:00.085Z,1.47
2018-12-09T22:30:27.256Z,1.20
2018-12-09T22:32:53.707Z,1.40
2018-12-09T22:35:20.458Z,2.10
2018-12-09T22:37:46.812Z,0.97
2018-12-09T22:40:13.502Z,2.03
2018-12-09T22:42:39.952Z,0.90
2018-12-09T22:45:06.365Z,0.93
2018-12-09T22:47:32.805Z,0.90
2018-12-09T22:49:59.286Z,1.00
2018-12-09T22:52:26.780Z,0.80
2018-12-09T22:54:53.285Z,0.90
2018-12-09T22:57:19.734Z,2.47
2018-12-09T22:59:46.185Z,1.00
2018-12-09T23:02:18.794Z,1.67
2018-12-09T23:04:45.281Z,0.80
2018-12-09T23:07:17.890Z,0.90
2018-12-09T23:09:45.318Z,0.87
2018-12-09T23:12:11.758Z,1.00
2018-12-09T23:14:38.223Z,0.80
2018-12-09T23:17:05.180Z,0.90
2018-12-09T23:19:31.848Z,0.87
2018-12-09T23:21:58.389Z,0.70
2018-12-09T23:24:25.708Z,0.80
2018-12-09T23:26:52.148Z,0.90
2018-12-09T23:29:18.558Z,1.00
2018-12-09T23:31:44.895Z,0.70
2018-12-09T23:34:11.369Z,1.33
2018-12-09T23:36:37.815Z,1.63
2018-12-09T23:39:05.986Z,0.97
2018-12-09T23:41:32.537Z,0.80
2018-12-09T23:43:58.922Z,1.67
2018-12-09T23:46:25.417Z,0.87
2018-12-09T23:48:51.823Z,0.90
2018-12-09T23:51:18.151Z,2.27
2018-12-09T23:53:44.541Z,1.30
2018-12-09T23:56:10.909Z,1.90
2018-12-09T23:58:37.236Z,0.90
